Decoded Metar for KPHP (PHILIP in SD, USA) (IATA:PHP) | Meteo·Mobile Aviation Weather
aviador You're here:

KPHP Decoded Metar

PHILIP in SD, USA
Report Time2019-08-21 12:55:00
UTC Time2019-08-21 13:23:04
Flight Rules vfr VFR
Wind100° at 04 kt
W.Decomp.*RWY 12: 3.4 kt HW 2.1 kt LCW
RWY 05: 3.1 kt HW 2.5 kt RCW
Visibility9999 m
Phenomena:N/A
Clouds:Overcast 110 Hf
Expected CloudBase > 400 ft AGL from Temp-Dew spread
Ceiling11,000 ft
Temp17°C (ISA +6)
Dew Point16°C (94% RH)
QNH1021 hPa
Density Alt2,936 ft
Elevation2,205 ft
Report Wrong Elevation
Raw Report
KPHP 211255Z AUTO 10004KT 10SM OVC110 17/16 A3016 RMK AO2 SLP198
T01670161=

Extra information for KPHP:More info

Metar Taf Metar & Taf Last 4 Metars F.Rules Stats Wind Profile Meteogram Temp Stats Airport Information Weather charts Add Link Nearby VenuesMetar ALERT Operation Metar Decoded Social comments

AIRNAV info for KPHP